createdAt,value
2022-12-09T00:09:30.769Z,1002.80
2022-12-09T00:19:30.928Z,1002.62
2022-12-09T00:29:31.163Z,1002.44
2022-12-09T00:39:31.185Z,1002.24
2022-12-09T00:49:31.690Z,1002.17
2022-12-09T00:59:31.542Z,1002.23
2022-12-09T01:09:32.197Z,1002.40
2022-12-09T01:19:31.893Z,1002.42
2022-12-09T01:29:32.273Z,1002.44
2022-12-09T01:39:32.271Z,1002.29
2022-12-09T01:49:32.589Z,1002.19
2022-12-09T01:59:32.868Z,1002.14
2022-12-09T02:09:32.971Z,1001.98
2022-12-09T02:19:33.026Z,1001.80
2022-12-09T02:29:33.645Z,1001.83
2022-12-09T02:39:33.604Z,1001.62
2022-12-09T02:49:33.831Z,1001.54
2022-12-09T02:59:34.504Z,1001.47
2022-12-09T03:09:34.132Z,1001.27
2022-12-09T03:19:34.331Z,1001.06
2022-12-09T03:29:36.177Z,1000.95
2022-12-09T03:39:34.410Z,1000.81
2022-12-09T03:49:34.940Z,1000.55
2022-12-09T03:59:34.863Z,1000.34
2022-12-09T04:09:35.244Z,1000.28
2022-12-09T04:19:35.264Z,1000.20
2022-12-09T04:29:35.719Z,1000.15
2022-12-09T04:39:36.044Z,1000.13
2022-12-09T04:49:35.977Z,999.96
2022-12-09T04:59:36.257Z,999.80
2022-12-09T05:09:36.549Z,999.72
2022-12-09T05:19:36.724Z,999.77
2022-12-09T05:29:36.935Z,999.77
2022-12-09T05:39:36.874Z,999.87
2022-12-09T05:49:37.255Z,999.73
2022-12-09T05:59:37.135Z,999.77
2022-12-09T06:09:37.378Z,999.84
2022-12-09T06:19:37.691Z,999.74
2022-12-09T06:29:40.736Z,999.60
2022-12-09T06:39:37.630Z,999.50
2022-12-09T06:49:38.441Z,999.61
2022-12-09T06:59:38.171Z,999.55
2022-12-09T07:09:38.495Z,999.51
2022-12-09T07:19:38.746Z,999.40
2022-12-09T07:29:38.438Z,999.25
2022-12-09T07:39:38.836Z,999.38
2022-12-09T07:49:39.069Z,999.33
2022-12-09T07:59:39.132Z,999.37
2022-12-09T08:09:39.512Z,999.31
2022-12-09T08:19:39.533Z,999.31
2022-12-09T08:29:40.210Z,999.12
2022-12-09T08:39:39.865Z,999.07
2022-12-09T08:49:40.353Z,999.02
2022-12-09T08:59:45.061Z,999.01
2022-12-09T09:09:41.221Z,999.12
2022-12-09T09:19:40.886Z,999.16
2022-12-09T09:29:40.527Z,999.12
2022-12-09T09:39:40.641Z,999.05
2022-12-09T09:49:40.823Z,998.98
2022-12-09T09:59:41.226Z,998.77
2022-12-09T10:09:41.517Z,998.65
2022-12-09T10:19:42.779Z,998.52
2022-12-09T10:29:41.624Z,998.33
2022-12-09T10:39:42.002Z,998.18
2022-12-09T10:49:42.299Z,998.05
2022-12-09T10:59:44.345Z,997.98
2022-12-09T11:09:42.730Z,997.92
2022-12-09T11:19:42.737Z,997.79
2022-12-09T11:29:42.972Z,997.62
2022-12-09T11:39:42.702Z,997.49
2022-12-09T11:49:42.758Z,997.53
2022-12-09T11:59:43.878Z,997.51
2022-12-09T12:09:47.407Z,997.44
2022-12-09T12:19:43.064Z,997.47
2022-12-09T12:29:43.297Z,997.36
2022-12-09T12:39:43.542Z,997.44
2022-12-09T12:49:43.795Z,997.45
2022-12-09T12:59:44.106Z,997.45
2022-12-09T13:09:44.261Z,997.46
2022-12-09T13:19:44.288Z,997.50
2022-12-09T13:29:45.536Z,997.59
2022-12-09T13:39:44.763Z,997.70
2022-12-09T13:49:45.006Z,997.69
2022-12-09T13:59:45.243Z,997.74
2022-12-09T14:09:45.468Z,997.85
2022-12-09T14:19:45.696Z,997.87
2022-12-09T14:29:45.956Z,998.03
2022-12-09T14:39:46.221Z,998.04
2022-12-09T14:49:49.448Z,998.25
2022-12-09T14:59:46.516Z,998.28
2022-12-09T15:09:46.956Z,998.45
2022-12-09T15:20:02.172Z,998.61
2022-12-09T15:29:48.153Z,998.74
2022-12-09T15:39:47.528Z,998.86
2022-12-09T15:49:51.516Z,998.92
2022-12-09T15:59:53.922Z,999.02
2022-12-09T16:09:49.091Z,999.09
2022-12-09T16:19:48.109Z,999.02
2022-12-09T16:29:48.432Z,999.14
2022-12-09T16:39:48.664Z,999.09
2022-12-09T16:49:48.820Z,999.11
2022-12-09T16:59:49.039Z,999.22
2022-12-09T17:10:10.157Z,999.48
2022-12-09T17:19:49.300Z,999.45
2022-12-09T17:29:49.504Z,999.50
2022-12-09T17:39:54.604Z,999.41
2022-12-09T17:49:50.717Z,999.67
2022-12-09T17:59:50.082Z,999.73
2022-12-09T18:09:54.483Z,999.80
2022-12-09T18:19:51.270Z,999.85
2022-12-09T18:29:50.620Z,1000.07
2022-12-09T18:39:50.514Z,999.92
2022-12-09T18:49:50.827Z,999.83
2022-12-09T18:59:51.789Z,999.86
2022-12-09T19:09:52.389Z,999.99
2022-12-09T19:19:52.045Z,999.99
2022-12-09T19:29:51.859Z,1000.05
2022-12-09T19:39:52.001Z,1000.06
2022-12-09T19:49:52.187Z,999.94
2022-12-09T19:59:52.332Z,1000.01
2022-12-09T20:09:52.549Z,1000.09
2022-12-09T20:19:52.654Z,1000.16
2022-12-09T20:29:54.764Z,1000.24
2022-12-09T20:39:52.979Z,1000.18
2022-12-09T20:49:53.240Z,1000.13
2022-12-09T20:59:53.336Z,1000.14
2022-12-09T21:09:53.349Z,1000.12
2022-12-09T21:19:54.431Z,1000.33
2022-12-09T21:29:53.884Z,1000.33
2022-12-09T21:39:53.884Z,1000.28
2022-12-09T21:49:55.852Z,1000.36
2022-12-09T21:59:53.866Z,1000.56
2022-12-09T22:09:54.155Z,1000.55
2022-12-09T22:20:22.507Z,1000.61
2022-12-09T22:29:55.453Z,1000.79
2022-12-09T22:39:54.713Z,1000.65
2022-12-09T22:49:54.943Z,1000.75
2022-12-09T22:59:55.282Z,1000.80
2022-12-09T23:09:55.310Z,1000.90
2022-12-09T23:19:55.665Z,1000.91
2022-12-09T23:29:55.694Z,1000.97
2022-12-09T23:39:56.013Z,1000.86
2022-12-09T23:49:56.042Z,1000.92
2022-12-09T23:59:56.297Z,1000.99
